sensor_id;sensor_type;location;lat;lon;timestamp;pressure;altitude;pressure_sealevel;temperature;humidity
21111;BME280;10713;51.912;4.494;2023-01-26T00:01:36;102497.03;;;2.73;100.00
21111;BME280;10713;51.912;4.494;2023-01-26T00:04:01;102503.19;;;2.76;100.00
21111;BME280;10713;51.912;4.494;2023-01-26T00:06:26;102507.53;;;2.77;100.00
21111;BME280;10713;51.912;4.494;2023-01-26T00:08:54;102504.31;;;2.90;100.00
21111;BME280;10713;51.912;4.494;2023-01-26T00:11:22;102498.41;;;2.99;100.00
21111;BME280;10713;51.912;4.494;2023-01-26T00:13:52;102505.47;;;3.05;100.00
21111;BME280;10713;51.912;4.494;2023-01-26T00:16:17;102501.09;;;3.04;100.00
21111;BME280;10713;51.912;4.494;2023-01-26T00:18:43;102500.16;;;3.00;100.00
21111;BME280;10713;51.912;4.494;2023-01-26T00:21:14;102512.22;;;2.93;100.00
21111;BME280;10713;51.912;4.494;2023-01-26T00:23:40;102505.03;;;2.82;100.00
21111;BME280;10713;51.912;4.494;2023-01-26T00:26:07;102508.50;;;2.81;100.00
21111;BME280;10713;51.912;4.494;2023-01-26T00:28:33;102511.22;;;2.87;100.00
21111;BME280;10713;51.912;4.494;2023-01-26T00:31:11;102507.75;;;2.88;100.00
21111;BME280;10713;51.912;4.494;2023-01-26T00:33:37;102504.44;;;2.95;100.00
21111;BME280;10713;51.912;4.494;2023-01-26T00:36:02;102508.88;;;3.01;100.00
21111;BME280;10713;51.912;4.494;2023-01-26T00:38:28;102514.00;;;2.96;100.00
21111;BME280;10713;51.912;4.494;2023-01-26T00:40:54;102513.25;;;3.03;100.00
21111;BME280;10713;51.912;4.494;2023-01-26T00:43:19;102498.44;;;3.01;100.00
21111;BME280;10713;51.912;4.494;2023-01-26T00:45:44;102497.59;;;3.03;100.00
21111;BME280;10713;51.912;4.494;2023-01-26T00:48:10;102492.63;;;3.15;100.00
21111;BME280;10713;51.912;4.494;2023-01-26T00:50:35;102493.44;;;3.14;100.00
21111;BME280;10713;51.912;4.494;2023-01-26T00:53:00;102491.75;;;3.15;100.00
21111;BME280;10713;51.912;4.494;2023-01-26T00:55:26;102496.97;;;3.16;100.00
21111;BME280;10713;51.912;4.494;2023-01-26T00:58:01;102491.75;;;3.16;100.00
21111;BME280;10713;51.912;4.494;2023-01-26T01:00:26;102490.03;;;3.17;100.00
21111;BME280;10713;51.912;4.494;2023-01-26T01:02:52;102470.81;;;3.12;100.00
21111;BME280;10713;51.912;4.494;2023-01-26T01:05:17;102474.31;;;3.12;100.00
21111;BME280;10713;51.912;4.494;2023-01-26T01:07:43;102474.25;;;3.09;100.00
21111;BME280;10713;51.912;4.494;2023-01-26T01:10:09;102477.75;;;3.11;100.00
21111;BME280;10713;51.912;4.494;2023-01-26T01:12:34;102470.00;;;3.16;100.00
21111;BME280;10713;51.912;4.494;2023-01-26T01:15:00;102471.75;;;3.17;100.00
21111;BME280;10713;51.912;4.494;2023-01-26T01:17:26;102473.25;;;3.03;100.00
21111;BME280;10713;51.912;4.494;2023-01-26T01:19:51;102470.41;;;2.90;100.00
21111;BME280;10713;51.912;4.494;2023-01-26T01:22:16;102461.78;;;2.93;100.00
21111;BME280;10713;51.912;4.494;2023-01-26T01:24:42;102461.16;;;3.08;100.00
21111;BME280;10713;51.912;4.494;2023-01-26T01:27:07;102471.53;;;3.05;100.00
21111;BME280;10713;51.912;4.494;2023-01-26T01:29:33;102460.97;;;2.97;100.00
21111;BME280;10713;51.912;4.494;2023-01-26T01:31:58;102464.28;;;2.87;100.00
21111;BME280;10713;51.912;4.494;2023-01-26T01:34:24;102467.81;;;2.90;100.00
21111;BME280;10713;51.912;4.494;2023-01-26T01:36:49;102466.88;;;2.88;100.00
21111;BME280;10713;51.912;4.494;2023-01-26T01:39:14;102466.13;;;2.92;100.00
21111;BME280;10713;51.912;4.494;2023-01-26T01:41:40;102466.28;;;3.03;100.00
21111;BME280;10713;51.912;4.494;2023-01-26T01:44:12;102464.53;;;3.02;100.00
21111;BME280;10713;51.912;4.494;2023-01-26T01:46:39;102459.41;;;3.07;100.00
21111;BME280;10713;51.912;4.494;2023-01-26T01:51:53;102462.38;;;3.27;100.00
21111;BME280;10713;51.912;4.494;2023-01-26T01:54:26;102471.84;;;3.22;100.00
21111;BME280;10713;51.912;4.494;2023-01-26T01:56:55;102466.53;;;3.17;100.00
21111;BME280;10713;51.912;4.494;2023-01-26T01:59:22;102465.72;;;3.20;100.00
21111;BME280;10713;51.912;4.494;2023-01-26T02:01:49;102465.75;;;3.21;100.00
21111;BME280;10713;51.912;4.494;2023-01-26T02:04:16;102471.06;;;3.29;100.00
21111;BME280;10713;51.912;4.494;2023-01-26T02:06:50;102464.13;;;3.28;100.00
21111;BME280;10713;51.912;4.494;2023-01-26T02:09:17;102456.19;;;3.22;100.00
21111;BME280;10713;51.912;4.494;2023-01-26T02:12:04;102454.31;;;3.14;100.00
21111;BME280;10713;51.912;4.494;2023-01-26T02:14:32;102455.28;;;3.20;100.00
21111;BME280;10713;51.912;4.494;2023-01-26T02:16:57;102450.88;;;3.17;100.00
21111;BME280;10713;51.912;4.494;2023-01-26T02:22:20;102454.59;;;3.31;100.00
21111;BME280;10713;51.912;4.494;2023-01-26T02:24:50;102460.78;;;3.36;100.00
21111;BME280;10713;51.912;4.494;2023-01-26T02:27:17;102451.13;;;3.31;100.00
21111;BME280;10713;51.912;4.494;2023-01-26T02:29:42;102447.69;;;3.33;100.00
21111;BME280;10713;51.912;4.494;2023-01-26T02:32:07;102445.97;;;3.35;100.00
21111;BME280;10713;51.912;4.494;2023-01-26T02:34:33;102449.47;;;3.37;100.00
21111;BME280;10713;51.912;4.494;2023-01-26T02:36:59;102451.25;;;3.40;100.00
21111;BME280;10713;51.912;4.494;2023-01-26T02:39:49;102454.03;;;3.51;100.00
21111;BME280;10713;51.912;4.494;2023-01-26T02:42:17;102453.16;;;3.50;100.00
21111;BME280;10713;51.912;4.494;2023-01-26T02:45:00;102452.34;;;3.54;100.00
21111;BME280;10713;51.912;4.494;2023-01-26T02:47:26;102464.53;;;3.54;100.00
21111;BME280;10713;51.912;4.494;2023-01-26T02:49:51;102453.16;;;3.50;100.00
21111;BME280;10713;51.912;4.494;2023-01-26T02:52:22;102455.88;;;3.56;100.00
21111;BME280;10713;51.912;4.494;2023-01-26T02:54:50;102454.09;;;3.52;100.00
21111;BME280;10713;51.912;4.494;2023-01-26T02:57:34;102457.53;;;3.50;100.00
21111;BME280;10713;51.912;4.494;2023-01-26T03:00:00;102466.28;;;3.53;100.00
21111;BME280;10713;51.912;4.494;2023-01-26T03:02:25;102467.22;;;3.60;100.00
21111;BME280;10713;51.912;4.494;2023-01-26T03:04:51;102456.00;;;3.64;100.00
21111;BME280;10713;51.912;4.494;2023-01-26T03:07:16;102459.63;;;3.74;100.00
21111;BME280;10713;51.912;4.494;2023-01-26T03:09:42;102456.09;;;3.72;100.00
21111;BME280;10713;51.912;4.494;2023-01-26T03:12:07;102460.53;;;3.77;100.00
21111;BME280;10713;51.912;4.494;2023-01-26T03:14:32;102463.25;;;3.85;100.00
21111;BME280;10713;51.912;4.494;2023-01-26T03:16:58;102460.59;;;3.82;100.00
21111;BME280;10713;51.912;4.494;2023-01-26T03:19:23;102457.91;;;3.77;100.00
21111;BME280;10713;51.912;4.494;2023-01-26T03:22:09;102456.25;;;3.81;100.00
21111;BME280;10713;51.912;4.494;2023-01-26T03:24:53;102458.03;;;3.83;100.00
21111;BME280;10713;51.912;4.494;2023-01-26T03:27:45;102454.47;;;3.78;100.00
21111;BME280;10713;51.912;4.494;2023-01-26T03:30:12;102464.03;;;3.78;100.00
21111;BME280;10713;51.912;4.494;2023-01-26T03:32:38;102452.72;;;3.79;100.00
21111;BME280;10713;51.912;4.494;2023-01-26T03:35:04;102455.25;;;3.74;100.00
21111;BME280;10713;51.912;4.494;2023-01-26T03:37:29;102447.44;;;3.74;100.00
21111;BME280;10713;51.912;4.494;2023-01-26T03:40:01;102464.13;;;3.86;100.00
21111;BME280;10713;51.912;4.494;2023-01-26T03:42:45;102454.63;;;3.91;100.00
21111;BME280;10713;51.912;4.494;2023-01-26T03:45:29;102458.94;;;3.87;100.00
21111;BME280;10713;51.912;4.494;2023-01-26T03:48:13;102454.59;;;3.88;100.00
21111;BME280;10713;51.912;4.494;2023-01-26T03:50:57;102455.41;;;3.83;100.00
21111;BME280;10713;51.912;4.494;2023-01-26T03:53:42;102463.19;;;3.80;100.00
21111;BME280;10713;51.912;4.494;2023-01-26T03:56:26;102460.78;;;3.94;100.00
21111;BME280;10713;51.912;4.494;2023-01-26T03:59:01;102457.13;;;3.83;100.00
21111;BME280;10713;51.912;4.494;2023-01-26T04:01:38;102457.16;;;3.84;100.00
21111;BME280;10713;51.912;4.494;2023-01-26T04:04:05;102460.72;;;3.91;100.00
21111;BME280;10713;51.912;4.494;2023-01-26T04:06:50;102456.41;;;3.95;100.00
21111;BME280;10713;51.912;4.494;2023-01-26T04:09:35;102466.88;;;3.95;100.00
21111;BME280;10713;51.912;4.494;2023-01-26T04:12:02;102453.75;;;3.90;100.00
21111;BME280;10713;51.912;4.494;2023-01-26T04:14:27;102457.28;;;3.92;100.00
21111;BME280;10713;51.912;4.494;2023-01-26T04:17:11;102453.91;;;4.01;100.00
21111;BME280;10713;51.912;4.494;2023-01-26T04:19:55;102455.81;;;4.13;100.00
21111;BME280;10713;51.912;4.494;2023-01-26T04:22:40;102461.13;;;4.19;100.00
21111;BME280;10713;51.912;4.494;2023-01-26T04:25:17;102461.09;;;4.16;100.00
21111;BME280;10713;51.912;4.494;2023-01-26T04:27:43;102459.31;;;4.13;100.00
21111;BME280;10713;51.912;4.494;2023-01-26T04:30:11;102453.19;;;4.14;100.00
21111;BME280;10713;51.912;4.494;2023-01-26T04:32:38;102457.63;;;4.20;100.00
21111;BME280;10713;51.912;4.494;2023-01-26T04:35:04;102462.00;;;4.19;100.00
21111;BME280;10713;51.912;4.494;2023-01-26T04:37:30;102456.88;;;4.28;100.00
21111;BME280;10713;51.912;4.494;2023-01-26T04:39:55;102460.47;;;4.35;100.00
21111;BME280;10713;51.912;4.494;2023-01-26T04:42:21;102455.34;;;4.44;100.00
21111;BME280;10713;51.912;4.494;2023-01-26T04:44:50;102457.13;;;4.48;100.00
21111;BME280;10713;51.912;4.494;2023-01-26T04:47:15;102459.75;;;4.51;100.00
21111;BME280;10713;51.912;4.494;2023-01-26T04:49:41;102453.66;;;4.51;100.00
21111;BME280;10713;51.912;4.494;2023-01-26T04:52:06;102459.66;;;4.42;100.00
21111;BME280;10713;51.912;4.494;2023-01-26T04:54:32;102455.31;;;4.41;100.00
21111;BME280;10713;51.912;4.494;2023-01-26T04:56:57;102453.56;;;4.42;100.00
21111;BME280;10713;51.912;4.494;2023-01-26T04:59:22;102454.50;;;4.47;100.00
21111;BME280;10713;51.912;4.494;2023-01-26T05:01:47;102456.31;;;4.53;100.00
21111;BME280;10713;51.912;4.494;2023-01-26T05:04:13;102452.06;;;4.64;100.00
21111;BME280;10713;51.912;4.494;2023-01-26T05:06:38;102451.06;;;4.54;100.00
21111;BME280;10713;51.912;4.494;2023-01-26T05:09:06;102450.25;;;4.55;100.00
21111;BME280;10713;51.912;4.494;2023-01-26T05:11:31;102458.97;;;4.56;100.00
21111;BME280;10713;51.912;4.494;2023-01-26T05:13:56;102458.06;;;4.54;100.00
21111;BME280;10713;51.912;4.494;2023-01-26T05:16:22;102466.00;;;4.63;100.00
21111;BME280;10713;51.912;4.494;2023-01-26T05:18:48;102457.34;;;4.68;100.00
21111;BME280;10713;51.912;4.494;2023-01-26T05:21:13;102463.47;;;4.72;100.00
21111;BME280;10713;51.912;4.494;2023-01-26T05:23:38;102455.59;;;4.69;100.00
21111;BME280;10713;51.912;4.494;2023-01-26T05:26:05;102462.56;;;4.68;100.00
21111;BME280;10713;51.912;4.494;2023-01-26T05:28:30;102467.78;;;4.65;100.00
21111;BME280;10713;51.912;4.494;2023-01-26T05:30:56;102463.47;;;4.72;100.00
21111;BME280;10713;51.912;4.494;2023-01-26T05:33:21;102460.03;;;4.78;100.00
21111;BME280;10713;51.912;4.494;2023-01-26T05:35:48;102461.81;;;4.80;100.00
21111;BME280;10713;51.912;4.494;2023-01-26T05:38:14;102470.53;;;4.81;100.00
21111;BME280;10713;51.912;4.494;2023-01-26T05:40:39;102461.84;;;4.83;100.00
21111;BME280;10713;51.912;4.494;2023-01-26T05:43:05;102475.84;;;4.85;100.00
21111;BME280;10713;51.912;4.494;2023-01-26T05:45:32;102475.84;;;4.84;100.00
21111;BME280;10713;51.912;4.494;2023-01-26T05:47:58;102471.41;;;4.78;100.00
21111;BME280;10713;51.912;4.494;2023-01-26T05:50:23;102474.06;;;4.81;100.00
21111;BME280;10713;51.912;4.494;2023-01-26T05:52:48;102474.94;;;4.82;100.00
21111;BME280;10713;51.912;4.494;2023-01-26T05:55:14;102473.16;;;4.81;100.00
21111;BME280;10713;51.912;4.494;2023-01-26T05:57:40;102474.09;;;4.84;100.00
21111;BME280;10713;51.912;4.494;2023-01-26T06:00:06;102483.69;;;4.85;100.00
21111;BME280;10713;51.912;4.494;2023-01-26T06:02:31;102481.06;;;4.84;100.00
21111;BME280;10713;51.912;4.494;2023-01-26T06:04:57;102476.72;;;4.84;100.00
21111;BME280;10713;51.912;4.494;2023-01-26T06:07:22;102485.47;;;4.88;100.00
21111;BME280;10713;51.912;4.494;2023-01-26T06:09:47;102487.25;;;4.90;100.00
21111;BME280;10713;51.912;4.494;2023-01-26T06:12:15;102478.56;;;4.96;100.00
21111;BME280;10713;51.912;4.494;2023-01-26T06:14:41;102487.28;;;4.96;100.00
21111;BME280;10713;51.912;4.494;2023-01-26T06:17:06;102495.19;;;5.00;100.00
21111;BME280;10713;51.912;4.494;2023-01-26T06:19:32;102490.84;;;5.02;100.00
21111;BME280;10713;51.912;4.494;2023-01-26T06:21:57;102489.16;;;5.07;100.00
21111;BME280;10713;51.912;4.494;2023-01-26T06:24:22;102493.56;;;5.12;100.00
21111;BME280;10713;51.912;4.494;2023-01-26T06:26:48;102485.75;;;5.15;100.00
21111;BME280;10713;51.912;4.494;2023-01-26T06:29:14;102486.59;;;5.14;100.00
21111;BME280;10713;51.912;4.494;2023-01-26T06:31:39;102501.47;;;5.20;100.00
21111;BME280;10713;51.912;4.494;2023-01-26T06:34:05;102498.88;;;5.18;100.00
21111;BME280;10713;51.912;4.494;2023-01-26T06:36:31;102501.47;;;5.20;100.00
21111;BME280;10713;51.912;4.494;2023-01-26T06:38:57;102499.72;;;5.20;100.00
21111;BME280;10713;51.912;4.494;2023-01-26T06:41:22;102505.88;;;5.21;100.00
21111;BME280;10713;51.912;4.494;2023-01-26T06:43:47;102508.50;;;5.23;100.00
21111;BME280;10713;51.912;4.494;2023-01-26T06:46:14;102515.50;;;5.24;100.00
21111;BME280;10713;51.912;4.494;2023-01-26T06:48:40;102512.88;;;5.24;100.00
21111;BME280;10713;51.912;4.494;2023-01-26T06:53:53;102530.38;;;5.31;100.00
21111;BME280;10713;51.912;4.494;2023-01-26T06:56:20;102520.78;;;5.31;100.00
21111;BME280;10713;51.912;4.494;2023-01-26T06:58:45;102523.38;;;5.28;100.00
21111;BME280;10713;51.912;4.494;2023-01-26T07:01:16;102521.66;;;5.30;100.00
21111;BME280;10713;51.912;4.494;2023-01-26T07:03:41;102530.44;;;5.35;100.00
21111;BME280;10713;51.912;4.494;2023-01-26T07:06:06;102527.84;;;5.38;100.00
21111;BME280;10713;51.912;4.494;2023-01-26T07:08:35;102533.06;;;5.35;100.00
21111;BME280;10713;51.912;4.494;2023-01-26T07:11:00;102539.94;;;5.26;100.00
21111;BME280;10713;51.912;4.494;2023-01-26T07:13:26;102540.00;;;5.30;100.00
21111;BME280;10713;51.912;4.494;2023-01-26T07:15:51;102541.78;;;5.36;100.00
21111;BME280;10713;51.912;4.494;2023-01-26T07:18:16;102535.72;;;5.40;100.00
21111;BME280;10713;51.912;4.494;2023-01-26T07:20:42;102539.28;;;5.47;100.00
21111;BME280;10713;51.912;4.494;2023-01-26T07:23:07;102541.06;;;5.54;100.00
21111;BME280;10713;51.912;4.494;2023-01-26T07:25:32;102550.72;;;5.59;100.00
21111;BME280;10713;51.912;4.494;2023-01-26T07:27:58;102542.06;;;5.67;100.00
21111;BME280;10713;51.912;4.494;2023-01-26T07:30:24;102552.56;;;5.71;100.00
21111;BME280;10713;51.912;4.494;2023-01-26T07:32:49;102557.88;;;5.80;100.00
21111;BME280;10713;51.912;4.494;2023-01-26T07:35:15;102557.97;;;5.90;100.00
21111;BME280;10713;51.912;4.494;2023-01-26T07:37:40;102560.69;;;5.99;100.00
21111;BME280;10713;51.912;4.494;2023-01-26T07:40:06;102563.31;;;6.03;100.00
21111;BME280;10713;51.912;4.494;2023-01-26T07:42:32;102558.22;;;6.23;100.00
21111;BME280;10713;51.912;4.494;2023-01-26T07:44:57;102563.53;;;6.32;100.00
21111;BME280;10713;51.912;4.494;2023-01-26T07:47:24;102569.69;;;6.42;100.00
21111;BME280;10713;51.912;4.494;2023-01-26T07:49:49;102567.94;;;6.43;100.00
21111;BME280;10713;51.912;4.494;2023-01-26T07:52:14;102569.69;;;6.44;100.00
21111;BME280;10713;51.912;4.494;2023-01-26T07:54:40;102576.72;;;6.48;100.00
21111;BME280;10713;51.912;4.494;2023-01-26T07:57:05;102571.50;;;6.51;100.00
21111;BME280;10713;51.912;4.494;2023-01-26T07:59:33;102581.19;;;6.64;100.00
21111;BME280;10713;51.912;4.494;2023-01-26T08:01:59;102585.56;;;6.68;100.00
21111;BME280;10713;51.912;4.494;2023-01-26T08:04:24;102578.59;;;6.75;100.00
21111;BME280;10713;51.912;4.494;2023-01-26T08:06:50;102590.00;;;6.72;100.00
21111;BME280;10713;51.912;4.494;2023-01-26T08:09:16;102590.00;;;6.77;100.00
21111;BME280;10713;51.912;4.494;2023-01-26T08:11:41;102583.91;;;6.92;100.00
21111;BME280;10713;51.912;4.494;2023-01-26T08:14:07;102585.66;;;6.91;100.00
21111;BME280;10713;51.912;4.494;2023-01-26T08:16:32;102583.03;;;6.91;100.00
21111;BME280;10713;51.912;4.494;2023-01-26T08:18:57;102594.44;;;6.90;100.00
21111;BME280;10713;51.912;4.494;2023-01-26T08:21:23;102590.94;;;6.97;100.00
21111;BME280;10713;51.912;4.494;2023-01-26T08:23:49;102597.94;;;7.00;100.00
21111;BME280;10713;51.912;4.494;2023-01-26T08:26:15;102597.97;;;6.95;100.00
21111;BME280;10713;51.912;4.494;2023-01-26T08:28:42;102599.69;;;6.93;100.00
21111;BME280;10713;51.912;4.494;2023-01-26T08:31:13;102596.19;;;6.93;100.00
21111;BME280;10713;51.912;4.494;2023-01-26T08:33:42;102596.16;;;6.91;100.00
21111;BME280;10713;51.912;4.494;2023-01-26T08:36:10;102604.09;;;6.99;100.00
21111;BME280;10713;51.912;4.494;2023-01-26T08:38:36;102610.25;;;7.10;100.00
21111;BME280;10713;51.912;4.494;2023-01-26T08:41:02;102609.41;;;7.23;100.00
21111;BME280;10713;51.912;4.494;2023-01-26T08:43:28;102606.78;;;7.27;100.00
21111;BME280;10713;51.912;4.494;2023-01-26T08:45:54;102611.19;;;7.28;100.00
21111;BME280;10713;51.912;4.494;2023-01-26T08:48:19;102613.84;;;7.40;100.00
21111;BME280;10713;51.912;4.494;2023-01-26T08:50:45;102606.00;;;7.89;100.00
21111;BME280;10713;51.912;4.494;2023-01-26T08:53:11;102606.88;;;8.22;100.00
21111;BME280;10713;51.912;4.494;2023-01-26T08:55:36;102597.19;;;8.51;100.00
21111;BME280;10713;51.912;4.494;2023-01-26T08:58:02;102603.28;;;8.70;100.00
21111;BME280;10713;51.912;4.494;2023-01-26T09:00:27;102604.19;;;8.65;100.00
21111;BME280;10713;51.912;4.494;2023-01-26T09:03:00;102603.16;;;9.02;100.00
21111;BME280;10713;51.912;4.494;2023-01-26T09:05:27;102598.31;;;9.74;100.00
21111;BME280;10713;51.912;4.494;2023-01-26T09:07:55;102595.75;;;10.60;100.00
21111;BME280;10713;51.912;4.494;2023-01-26T09:10:20;102590.25;;;11.43;100.00
21111;BME280;10713;51.912;4.494;2023-01-26T09:12:46;102596.09;;;12.18;100.00
21111;BME280;10713;51.912;4.494;2023-01-26T09:15:11;102605.69;;;12.72;100.00
21111;BME280;10713;51.912;4.494;2023-01-26T09:17:36;102597.84;;;13.07;100.00
21111;BME280;10713;51.912;4.494;2023-01-26T09:20:03;102603.28;;;13.43;100.00
21111;BME280;10713;51.912;4.494;2023-01-26T09:22:29;102603.28;;;13.01;100.00
21111;BME280;10713;51.912;4.494;2023-01-26T09:24:55;102595.47;;;12.04;100.00
21111;BME280;10713;51.912;4.494;2023-01-26T09:27:20;102611.53;;;11.34;100.00
21111;BME280;10713;51.912;4.494;2023-01-26T09:29:45;102623.09;;;10.56;100.00
21111;BME280;10713;51.912;4.494;2023-01-26T09:32:11;102633.16;;;10.12;100.00
21111;BME280;10713;51.912;4.494;2023-01-26T09:34:36;102634.38;;;9.67;100.00
21111;BME280;10713;51.912;4.494;2023-01-26T09:37:01;102646.91;;;9.31;100.00
21111;BME280;10713;51.912;4.494;2023-01-26T09:39:27;102637.41;;;8.99;100.00
21111;BME280;10713;51.912;4.494;2023-01-26T09:42:12;102629.59;;;8.76;100.00
21111;BME280;10713;51.912;4.494;2023-01-26T09:44:54;102636.63;;;8.65;100.00
21111;BME280;10713;51.912;4.494;2023-01-26T09:50:11;102634.03;;;8.41;100.00
21111;BME280;10713;51.912;4.494;2023-01-26T09:52:49;102634.03;;;8.28;100.00
21111;BME280;10713;51.912;4.494;2023-01-26T09:55:19;102636.66;;;8.27;100.00
21111;BME280;10713;51.912;4.494;2023-01-26T10:02:59;102641.94;;;8.28;100.00
21111;BME280;10713;51.912;4.494;2023-01-26T10:05:36;102647.22;;;8.45;100.00
21111;BME280;10713;51.912;4.494;2023-01-26T10:08:09;102636.69;;;8.50;100.00
21111;BME280;10713;51.912;4.494;2023-01-26T10:10:39;102642.81;;;8.52;100.00
21111;BME280;10713;51.912;4.494;2023-01-26T10:13:05;102627.88;;;8.49;100.00
21111;BME280;10713;51.912;4.494;2023-01-26T10:15:38;102633.94;;;8.93;100.00
21111;BME280;10713;51.912;4.494;2023-01-26T10:18:11;102641.56;;;9.43;100.00
21111;BME280;10713;51.912;4.494;2023-01-26T10:20:44;102644.97;;;9.65;100.00
21111;BME280;10713;51.912;4.494;2023-01-26T10:23:18;102633.44;;;9.76;100.00
21111;BME280;10713;51.912;4.494;2023-01-26T10:25:46;102630.00;;;9.67;100.00
21111;BME280;10713;51.912;4.494;2023-01-26T10:30:44;102639.72;;;9.58;100.00
21111;BME280;10713;51.912;4.494;2023-01-26T10:33:14;102639.50;;;9.87;100.00
21111;BME280;10713;51.912;4.494;2023-01-26T10:35:40;102640.06;;;10.30;100.00
21111;BME280;10713;51.912;4.494;2023-01-26T10:41:03;102643.66;;;10.20;100.00
21111;BME280;10713;51.912;4.494;2023-01-26T10:43:35;102648.06;;;10.18;100.00
21111;BME280;10713;51.912;4.494;2023-01-26T10:46:02;102643.66;;;10.22;100.00
21111;BME280;10713;51.912;4.494;2023-01-26T10:48:28;102643.69;;;10.14;100.00
21111;BME280;10713;51.912;4.494;2023-01-26T10:50:54;102635.91;;;10.00;100.00
21111;BME280;10713;51.912;4.494;2023-01-26T10:53:37;102636.75;;;10.04;100.00
21111;BME280;10713;51.912;4.494;2023-01-26T10:56:08;102643.66;;;10.15;100.00
21111;BME280;10713;51.912;4.494;2023-01-26T10:58:54;102641.03;;;10.17;100.00
21111;BME280;10713;51.912;4.494;2023-01-26T11:01:21;102627.03;;;10.10;100.00
21111;BME280;10713;51.912;4.494;2023-01-26T11:03:58;102631.47;;;10.05;100.00
21111;BME280;10713;51.912;4.494;2023-01-26T11:06:27;102636.66;;;10.14;100.00
21111;BME280;10713;51.912;4.494;2023-01-26T11:09:07;102636.59;;;10.22;100.00
21111;BME280;10713;51.912;4.494;2023-01-26T11:11:33;102632.19;;;10.21;100.00
21111;BME280;10713;51.912;4.494;2023-01-26T11:14:19;102633.88;;;10.34;100.00
21111;BME280;10713;51.912;4.494;2023-01-26T11:16:49;102631.09;;;10.47;100.00
21111;BME280;10713;51.912;4.494;2023-01-26T11:22:06;102610.63;;;10.69;100.00
21111;BME280;10713;51.912;4.494;2023-01-26T11:33:20;102615.06;;;10.65;100.00
21111;BME280;10713;51.912;4.494;2023-01-26T11:36:09;102614.41;;;10.43;100.00
21111;BME280;10713;51.912;4.494;2023-01-26T11:38:44;102611.94;;;10.25;100.00
21111;BME280;10713;51.912;4.494;2023-01-26T11:41:22;102601.41;;;10.22;100.00
21111;BME280;10713;51.912;4.494;2023-01-26T11:43:54;102593.66;;;10.05;100.00
21111;BME280;10713;51.912;4.494;2023-01-26T11:51:39;102598.06;;;10.03;100.00
21111;BME280;10713;51.912;4.494;2023-01-26T11:54:28;102595.53;;;9.90;100.00
21111;BME280;10713;51.912;4.494;2023-01-26T11:59:51;102587.56;;;9.95;100.00
21111;BME280;10713;51.912;4.494;2023-01-26T12:02:26;102593.75;;;9.92;100.00
21111;BME280;10713;51.912;4.494;2023-01-26T12:04:56;102586.66;;;9.99;100.00
21111;BME280;10713;51.912;4.494;2023-01-26T12:13:09;102576.56;;;10.46;100.00
21111;BME280;10713;51.912;4.494;2023-01-26T12:15:37;102566.81;;;10.49;100.00
21111;BME280;10713;51.912;4.494;2023-01-26T12:21:09;102569.69;;;10.26;100.00
21111;BME280;10713;51.912;4.494;2023-01-26T12:24:02;102563.66;;;10.12;100.00
21111;BME280;10713;51.912;4.494;2023-01-26T12:26:36;102560.19;;;10.07;100.00
21111;BME280;10713;51.912;4.494;2023-01-26T12:29:22;102548.75;;;10.09;100.00
21111;BME280;10713;51.912;4.494;2023-01-26T12:32:04;102547.06;;;10.02;100.00
21111;BME280;10713;51.912;4.494;2023-01-26T12:34:33;102545.38;;;9.93;100.00
21111;BME280;10713;51.912;4.494;2023-01-26T12:45:01;102533.31;;;9.68;100.00
21111;BME280;10713;51.912;4.494;2023-01-26T12:47:49;102534.13;;;9.76;100.00
21111;BME280;10713;51.912;4.494;2023-01-26T12:50:29;102526.22;;;9.76;100.00
21111;BME280;10713;51.912;4.494;2023-01-26T12:53:15;102520.91;;;9.79;100.00
21111;BME280;10713;51.912;4.494;2023-01-26T12:55:49;102517.44;;;9.74;100.00
21111;BME280;10713;51.912;4.494;2023-01-26T13:01:11;102518.94;;;9.98;100.00
21111;BME280;10713;51.912;4.494;2023-01-26T13:04:01;102509.31;;;9.94;100.00
21111;BME280;10713;51.912;4.494;2023-01-26T13:06:28;102510.13;;;10.01;100.00
21111;BME280;10713;51.912;4.494;2023-01-26T13:14:32;102513.63;;;10.03;100.00
21111;BME280;10713;51.912;4.494;2023-01-26T13:24:58;102520.22;;;9.59;100.00
21111;BME280;10713;51.912;4.494;2023-01-26T13:27:40;102525.47;;;9.59;100.00
21111;BME280;10713;51.912;4.494;2023-01-26T13:35:17;102538.69;;;9.53;100.00
21111;BME280;10713;51.912;4.494;2023-01-26T13:40:56;102540.44;;;9.57;100.00
21111;BME280;10713;51.912;4.494;2023-01-26T13:45:56;102527.19;;;9.63;100.00
21111;BME280;10713;51.912;4.494;2023-01-26T13:48:49;102521.97;;;9.57;100.00
21111;BME280;10713;51.912;4.494;2023-01-26T13:53:52;102526.31;;;9.61;100.00
21111;BME280;10713;51.912;4.494;2023-01-26T13:56:32;102525.38;;;9.71;100.00
21111;BME280;10713;51.912;4.494;2023-01-26T13:59:17;102524.53;;;9.67;100.00
21111;BME280;10713;51.912;4.494;2023-01-26T14:01:55;102521.06;;;9.61;100.00
21111;BME280;10713;51.912;4.494;2023-01-26T14:07:13;102520.22;;;9.53;100.00
21111;BME280;10713;51.912;4.494;2023-01-26T14:09:44;102515.81;;;9.58;100.00
21111;BME280;10713;51.912;4.494;2023-01-26T14:12:16;102521.03;;;9.64;100.00
21111;BME280;10713;51.912;4.494;2023-01-26T14:14:45;102517.47;;;9.69;100.00
21111;BME280;10713;51.912;4.494;2023-01-26T14:17:31;102528.06;;;9.65;100.00
21111;BME280;10713;51.912;4.494;2023-01-26T14:19:58;102524.59;;;9.60;100.00
21111;BME280;10713;51.912;4.494;2023-01-26T14:22:27;102525.50;;;9.53;100.00
21111;BME280;10713;51.912;4.494;2023-01-26T14:24:53;102526.47;;;9.44;100.00
21111;BME280;10713;51.912;4.494;2023-01-26T14:27:38;102529.25;;;9.27;100.00
21111;BME280;10713;51.912;4.494;2023-01-26T14:30:31;102533.66;;;9.20;100.00